Time;durP1;ratioP1;P1;durP2;ratioP2;P2;SDS_P1;SDS_P2;PMS_P1;PMS_P2;Temp;Humidity;BMP_temperature;BMP_pressure;BME280_temperature;BME280_humidity;BME280_pressure;Samples;Min_cycle;Max_cycle;Signal;HPM_P1;HPM_P2
2022/04/10 00:00:22;;;;;;;;;;;;;;;-0.19;100.00;95829.44;1027060;28;19922;-72
2022/04/10 00:00:55;;;;;;;;;;;;;;;-0.14;100.00;95833.00;1027013;28;20004;-73
2022/04/10 00:01:25;;;;;;;;;;;;;;;-0.14;100.00;95837.38;1031332;28;19914;-75
2022/04/10 00:01:55;;;;;;;;;;;;;;;-0.17;100.00;95837.75;1026893;28;19972;-74
2022/04/10 00:02:26;;;;;;;;;;;;;;;-0.20;100.00;95848.44;1023032;28;20317;-75
2022/04/10 00:02:56;;;;;;;;;;;;;;;-0.19;100.00;95842.34;1022560;28;19919;-74
2022/04/10 00:03:26;;;;;;;;;;;;;;;-0.21;100.00;95841.72;1018815;28;19954;-74
2022/04/10 00:03:57;;;;;;;;;;;;;;;-0.20;100.00;95833.81;1026731;28;19924;-74
2022/04/10 00:04:27;;;;;;;;;;;;;;;-0.19;100.00;95845.69;1030976;28;19926;-76
2022/04/10 00:04:57;;;;;;;;;;;;;;;-0.21;100.00;95842.50;1033925;28;19916;-75
2022/04/10 00:05:28;;;;;;;;;;;;;;;-0.18;100.00;95836.19;1038769;28;19921;-73
2022/04/10 00:05:58;;;;;;;;;;;;;;;-0.10;100.00;95838.56;1043083;28;19909;-74
2022/04/10 00:06:28;;;;;;;;;;;;;;;-0.11;100.00;95837.78;1039149;28;20649;-74
2022/04/10 00:06:59;;;;;;;;;;;;;;;-0.12;100.00;95843.16;1038291;28;20718;-74
2022/04/10 00:07:29;;;;;;;;;;;;;;;-0.11;100.00;95847.31;1038811;28;20398;-74
2022/04/10 00:07:59;;;;;;;;;;;;;;;-0.16;100.00;95845.31;1034771;28;19918;-74
2022/04/10 00:08:30;;;;;;;;;;;;;;;-0.16;100.00;95841.94;1034881;28;19913;-73
2022/04/10 00:09:00;;;;;;;;;;;;;;;-0.19;100.00;95839.75;1030460;28;19918;-72
2022/04/10 00:09:30;;;;;;;;;;;;;;;-0.22;100.00;95840.13;1030704;28;19909;-73
2022/04/10 00:10:00;;;;;;;;;;;;;;;-0.18;100.00;95842.13;1030658;28;19914;-73
2022/04/10 00:10:31;;;;;;;;;;;;;;;-0.19;100.00;95840.53;1028903;28;20676;-74
2022/04/10 00:11:01;;;;;;;;;;;;;;;-0.19;100.00;95844.91;1030526;28;19917;-74
2022/04/10 00:11:31;;;;;;;;;;;;;;;-0.20;100.00;95840.72;1034743;28;19959;-73
2022/04/10 00:12:03;;;;;;;;;;;;;;;-0.20;100.00;95840.72;1029556;28;19999;-73
2022/04/10 00:12:34;;;;;;;;;;;;;;;-0.25;100.00;95839.50;1026670;28;20300;-73
2022/04/10 00:13:04;;;;;;;;;;;;;;;-0.24;100.00;95842.88;1026456;28;19914;-74
2022/04/10 00:13:35;;;;;;;;;;;;;;;-0.28;100.00;95837.31;1022808;28;19957;-73
2022/04/10 00:14:05;;;;;;;;;;;;;;;-0.27;100.00;95838.94;1030409;28;19914;-73
2022/04/10 00:14:36;;;;;;;;;;;;;;;-0.22;100.00;95840.13;1030947;28;19921;-73
2022/04/10 00:15:06;;;;;;;;;;;;;;;-0.26;100.00;95839.72;1030572;28;20319;-74
2022/04/10 00:15:39;;;;;;;;;;;;;;;-0.26;100.00;95832.78;1030590;28;19902;-74
2022/04/10 00:16:10;;;;;;;;;;;;;;;-0.25;100.00;95839.50;1031227;28;19914;-73
2022/04/10 00:16:43;;;;;;;;;;;;;;;-0.26;100.00;95840.50;1034337;28;19913;-74
2022/04/10 00:17:14;;;;;;;;;;;;;;;-0.21;100.00;95841.72;1035993;28;20490;-73
2022/04/10 00:17:45;;;;;;;;;;;;;;;-0.24;100.00;95838.53;1038776;28;19990;-75
2022/04/10 00:18:17;;;;;;;;;;;;;;;-0.20;100.00;95843.28;1039004;28;19932;-74
2022/04/10 00:18:48;;;;;;;;;;;;;;;-0.20;100.00;95838.13;1038650;28;19960;-73
2022/04/10 00:19:19;;;;;;;;;;;;;;;-0.24;100.00;95835.94;1034566;28;19921;-73
2022/04/10 00:19:49;;;;;;;;;;;;;;;-0.21;100.00;95841.72;1034830;28;20067;-73
2022/04/10 00:20:22;;;;;;;;;;;;;;;-0.20;100.00;95843.28;1029856;28;19988;-72
2022/04/10 00:20:52;;;;;;;;;;;;;;;-0.22;100.00;95847.88;1027463;28;19921;-75
2022/04/10 00:21:23;;;;;;;;;;;;;;;-0.16;100.00;95841.94;1034573;28;19933;-74
2022/04/10 00:21:56;;;;;;;;;;;;;;;-0.17;100.00;95842.91;1039371;28;19980;-74
2022/04/10 00:22:38;;;;;;;;;;;;;;;-0.18;100.00;95842.13;1034545;28;19932;-74
2022/04/10 00:23:09;;;;;;;;;;;;;;;-0.23;100.00;95844.50;1028613;28;19937;-73
2022/04/10 00:23:39;;;;;;;;;;;;;;;-0.23;100.00;95849.66;1026669;28;20883;-74
2022/04/10 00:24:11;;;;;;;;;;;;;;;-0.22;100.00;95845.28;1027866;28;19921;-72
2022/04/10 00:24:41;;;;;;;;;;;;;;;-0.22;100.00;95843.50;1026914;28;19918;-74
2022/04/10 00:25:15;;;;;;;;;;;;;;;-0.25;100.00;95851.63;1031332;28;19921;-72
2022/04/10 00:25:46;;;;;;;;;;;;;;;-0.28;100.00;95845.06;1028012;28;20311;-75
2022/04/10 00:26:16;;;;;;;;;;;;;;;-0.28;100.00;95847.63;1030682;28;19922;-73
2022/04/10 00:26:49;;;;;;;;;;;;;;;-0.26;100.00;95842.31;1034086;28;19944;-73
2022/04/10 00:27:19;;;;;;;;;;;;;;;-0.27;100.00;95846.66;1034990;28;19921;-72
2022/04/10 00:27:50;;;;;;;;;;;;;;;-0.45;100.00;95804.34;1034194;28;19925;-75
2022/04/10 00:28:20;;;;;;;;;;;;;;;-0.12;100.00;95850.88;1034263;28;19941;-72
2022/04/10 00:28:54;;;;;;;;;;;;;;;-0.12;100.00;95849.09;1030715;28;19957;-73
2022/04/10 00:29:24;;;;;;;;;;;;;;;-0.15;100.00;95844.31;1034956;28;19972;-73
2022/04/10 00:29:57;;;;;;;;;;;;;;;-0.17;100.00;95842.91;1034961;28;19990;-72
2022/04/10 00:30:28;;;;;;;;;;;;;;;-0.18;100.00;95846.50;1030482;28;19968;-73
2022/04/10 00:30:59;;;;;;;;;;;;;;;-0.21;100.00;95841.72;1025736;28;20348;-74
2022/04/10 00:31:29;;;;;;;;;;;;;;;-0.21;100.00;95849.44;1023678;28;19922;-73
2022/04/10 00:31:59;;;;;;;;;;;;;;;-0.21;100.00;95842.50;1031070;28;19949;-73
2022/04/10 00:32:30;;;;;;;;;;;;;;;-0.20;100.00;95844.13;1034762;28;19913;-73
2022/04/10 00:33:02;;;;;;;;;;;;;;;-0.15;100.00;95846.09;1034549;28;19993;-73
2022/04/10 00:33:33;;;;;;;;;;;;;;;-0.17;100.00;95850.66;1030631;28;19917;-73
2022/04/10 00:34:03;;;;;;;;;;;;;;;-0.16;100.00;95850.47;1030723;28;19918;-73
2022/04/10 00:34:33;;;;;;;;;;;;;;;-0.11;100.00;95847.31;1034787;28;19968;-72
2022/04/10 00:35:05;;;;;;;;;;;;;;;-0.04;100.00;95840.38;1027062;28;19922;-73
2022/04/10 00:35:35;;;;;;;;;;;;;;;-0.05;100.00;95854.28;1030679;28;19929;-75
2022/04/10 00:36:06;;;;;;;;;;;;;;;-0.09;100.00;95847.91;1026429;28;20395;-73
2022/04/10 00:36:36;;;;;;;;;;;;;;;-0.11;100.00;95852.47;1027179;28;20004;-72
2022/04/10 00:37:06;;;;;;;;;;;;;;;-0.12;100.00;95848.31;1034024;28;19984;-73
2022/04/10 00:37:37;;;;;;;;;;;;;;;-0.14;100.00;95852.84;1032006;28;20312;-72
2022/04/10 00:38:07;;;;;;;;;;;;;;;-0.15;100.00;95853.84;1034612;28;20410;-73
2022/04/10 00:38:37;;;;;;;;;;;;;;;-0.14;100.00;95845.13;1030731;28;19913;-74
2022/04/10 00:39:08;;;;;;;;;;;;;;;-0.07;100.00;95856.25;1030692;28;19918;-73
2022/04/10 00:39:41;;;;;;;;;;;;;;;-0.09;100.00;95855.66;1030452;28;19925;-73
2022/04/10 00:40:14;;;;;;;;;;;;;;;-0.11;100.00;95853.25;1027299;28;20610;-74
2022/04/10 00:40:44;;;;;;;;;;;;;;;-0.09;100.00;95860.81;1026611;28;19965;-73
2022/04/10 00:41:15;;;;;;;;;;;;;;;-0.11;100.00;95849.88;1025775;28;19926;-73
2022/04/10 00:41:46;;;;;;;;;;;;;;;-0.11;100.00;95857.63;1030588;28;20307;-72
2022/04/10 00:42:16;;;;;;;;;;;;;;;-0.07;100.00;95863.97;1026463;28;19922;-73
2022/04/10 00:42:48;;;;;;;;;;;;;;;-0.10;100.00;95854.88;1025009;28;19961;-73
2022/04/10 00:43:18;;;;;;;;;;;;;;;-0.08;100.00;95860.59;1034811;28;20606;-72
2022/04/10 00:44:20;;;;;;;;;;;;;;;-0.10;100.00;95859.19;1031220;28;19918;-73
2022/04/10 00:44:51;;;;;;;;;;;;;;;0.03;100.00;95859.25;1038467;28;19939;-69
2022/04/10 00:45:21;;;;;;;;;;;;;;;0.02;100.00;95862.84;1028748;28;19926;-72
2022/04/10 00:45:51;;;;;;;;;;;;;;;0.03;100.00;95859.25;1029353;28;19918;-72
2022/04/10 00:46:21;;;;;;;;;;;;;;;0.04;100.00;95860.06;1037826;28;19920;-72
2022/04/10 00:46:52;;;;;;;;;;;;;;;0.01;100.00;95860.47;1038141;28;19928;-72
2022/04/10 00:47:22;;;;;;;;;;;;;;;0.02;100.00;95856.88;1042903;28;20282;-72
2022/04/10 00:47:55;;;;;;;;;;;;;;;0.05;100.00;95862.44;1032285;28;19918;-72
2022/04/10 00:48:26;;;;;;;;;;;;;;;0.02;100.00;95857.69;1034573;28;19969;-73
2022/04/10 00:48:59;;;;;;;;;;;;;;;0.02;100.00;95860.25;1034758;28;19924;-73
2022/04/10 00:49:30;;;;;;;;;;;;;;;0.04;100.00;95855.72;1032262;28;19918;-74
2022/04/10 00:50:01;;;;;;;;;;;;;;;0.06;100.00;95861.44;1034665;28;19917;-73
2022/04/10 00:50:31;;;;;;;;;;;;;;;0.11;100.00;95861.69;1034204;28;19922;-74
2022/04/10 00:51:52;;;;;;;;;;;;;;;0.14;100.00;95858.72;1030037;28;19953;-73
2022/04/10 00:52:22;;;;;;;;;;;;;;;0.16;100.00;95853.34;1030624;28;19925;-73
2022/04/10 00:52:52;;;;;;;;;;;;;;;0.21;100.00;95856.94;1026261;28;19930;-72
2022/04/10 00:53:23;;;;;;;;;;;;;;;0.22;100.00;95855.16;1022702;28;19917;-75
2022/04/10 00:53:56;;;;;;;;;;;;;;;0.26;100.00;95855.56;1023417;28;20016;-73
2022/04/10 00:54:27;;;;;;;;;;;;;;;0.28;100.00;95853.59;1026978;28;19912;-73
2022/04/10 00:54:58;;;;;;;;;;;;;;;0.32;100.00;95858.16;1018479;28;19910;-73
2022/04/10 00:55:28;;;;;;;;;;;;;;;0.34;100.00;95857.97;1019252;29;19915;-72
2022/04/10 00:56:01;;;;;;;;;;;;;;;0.36;100.00;95853.41;1014845;29;20083;-72
2022/04/10 00:56:32;;;;;;;;;;;;;;;0.37;100.00;95854.97;1022303;28;20386;-75
2022/04/10 00:57:02;;;;;;;;;;;;;;;0.38;100.00;95854.00;1029716;28;19910;-74
2022/04/10 00:57:32;;;;;;;;;;;;;;;0.41;100.00;95853.63;1027143;28;19917;-73
2022/04/10 00:58:02;;;;;;;;;;;;;;;0.43;100.00;95855.00;1030440;28;19948;-74
2022/04/10 00:58:33;;;;;;;;;;;;;;;0.45;100.00;95852.25;1030697;28;20470;-72
2022/04/10 00:59:03;;;;;;;;;;;;;;;0.45;100.00;95847.88;1022275;29;19911;-73
2022/04/10 00:59:34;;;;;;;;;;;;;;;0.48;100.00;95851.84;1026577;28;19906;-70
2022/04/10 01:00:05;;;;;;;;;;;;;;;0.50;100.00;95851.63;1030512;28;19960;-72
2022/04/10 01:00:35;;;;;;;;;;;;;;;0.52;100.00;95853.03;1030631;28;20646;-72
2022/04/10 01:01:05;;;;;;;;;;;;;;;0.55;100.00;95851.84;1026017;28;19922;-73
2022/04/10 01:01:36;;;;;;;;;;;;;;;0.55;100.00;95852.66;1025347;28;19914;-72
2022/04/10 01:02:06;;;;;;;;;;;;;;;0.55;100.00;95850.06;1026436;28;20435;-74
2022/04/10 01:02:37;;;;;;;;;;;;;;;0.58;100.00;95857.41;1026540;28;20311;-73
2022/04/10 01:03:07;;;;;;;;;;;;;;;0.60;100.00;95857.22;1022133;28;20641;-75
2022/04/10 01:03:37;;;;;;;;;;;;;;;0.61;100.00;95846.69;1022752;28;19918;-72
2022/04/10 01:04:08;;;;;;;;;;;;;;;0.62;100.00;95850.88;1026662;28;19910;-73
2022/04/10 01:04:38;;;;;;;;;;;;;;;0.64;100.00;95848.91;1026744;28;19921;-74
2022/04/10 01:05:09;;;;;;;;;;;;;;;0.63;100.00;95844.69;1034216;28;20004;-72
2022/04/10 01:05:39;;;;;;;;;;;;;;;0.64;100.00;95850.69;1034681;28;19959;-75
2022/04/10 01:06:09;;;;;;;;;;;;;;;0.62;100.00;95843.13;1030585;28;19910;-75
2022/04/10 01:06:40;;;;;;;;;;;;;;;0.64;100.00;95853.28;1030208;28;19913;-73
2022/04/10 01:07:13;;;;;;;;;;;;;;;0.65;100.00;95847.09;1030116;28;20478;-72
2022/04/10 01:07:44;;;;;;;;;;;;;;;0.65;100.00;95853.06;1030944;28;19913;-73
2022/04/10 01:08:14;;;;;;;;;;;;;;;0.64;100.00;95846.31;1035131;28;20283;-73
2022/04/10 01:08:44;;;;;;;;;;;;;;;0.63;100.00;95849.88;1034038;28;19936;-74
2022/04/10 01:09:17;;;;;;;;;;;;;;;0.61;100.00;95845.91;1026466;28;19910;-73
2022/04/10 01:09:48;;;;;;;;;;;;;;;0.59;100.00;95848.69;1023071;28;20404;-73
2022/04/10 01:10:19;;;;;;;;;;;;;;;0.58;100.00;95849.69;1027401;28;19914;-74
2022/04/10 01:10:49;;;;;;;;;;;;;;;0.61;100.00;95851.06;1034757;28;20417;-71
2022/04/10 01:11:20;;;;;;;;;;;;;;;0.59;100.00;95848.69;1034511;28;19913;-74
2022/04/10 01:11:53;;;;;;;;;;;;;;;0.58;100.00;95844.50;1034890;28;19909;-73
2022/04/10 01:12:26;;;;;;;;;;;;;;;0.57;100.00;95855.03;1034062;28;19909;-73
2022/04/10 01:12:56;;;;;;;;;;;;;;;0.54;100.00;95851.06;1035402;28;19932;-73
2022/04/10 01:13:26;;;;;;;;;;;;;;;0.55;100.00;95842.31;1034479;28;20651;-73
2022/04/10 01:13:57;;;;;;;;;;;;;;;0.56;100.00;95853.44;1034712;28;20334;-74
2022/04/10 01:14:27;;;;;;;;;;;;;;;0.57;100.00;95844.69;1026587;28;19924;-74
2022/04/10 01:14:57;;;;;;;;;;;;;;;0.56;100.00;95851.66;1026707;28;19918;-73
2022/04/10 01:15:28;;;;;;;;;;;;;;;0.55;100.00;95847.47;1026170;28;19914;-72
2022/04/10 01:15:58;;;;;;;;;;;;;;;0.52;100.00;95853.03;1022844;28;19911;-71
2022/04/10 01:16:28;;;;;;;;;;;;;;;0.51;100.00;95846.28;1030613;28;20781;-74
2022/04/10 01:16:59;;;;;;;;;;;;;;;0.52;100.00;95842.72;1029910;28;19990;-73
2022/04/10 01:17:30;;;;;;;;;;;;;;;0.51;100.00;95854.03;1030362;28;19917;-73
2022/04/10 01:18:00;;;;;;;;;;;;;;;0.51;100.00;95854.03;1026525;28;20458;-73
2022/04/10 01:18:31;;;;;;;;;;;;;;;0.49;100.00;95843.09;1026656;28;19914;-73
2022/04/10 01:19:01;;;;;;;;;;;;;;;0.47;100.00;95852.84;1026531;28;19925;-73
2022/04/10 01:19:31;;;;;;;;;;;;;;;0.44;100.00;95842.91;1030782;28;19917;-73
2022/04/10 01:20:03;;;;;;;;;;;;;;;0.43;100.00;95843.88;1029805;28;19918;-72
2022/04/10 01:20:33;;;;;;;;;;;;;;;0.42;100.00;95845.66;1034474;28;20021;-73
2022/04/10 01:21:04;;;;;;;;;;;;;;;0.43;100.00;95846.47;1030420;28;20407;-72
2022/04/10 01:21:38;;;;;;;;;;;;;;;0.40;100.00;95842.50;1026698;28;19925;-74
2022/04/10 01:22:09;;;;;;;;;;;;;;;0.40;100.00;95844.28;1025558;28;19914;-73
2022/04/10 01:22:40;;;;;;;;;;;;;;;0.40;100.00;95852.00;1031210;28;19941;-73
2022/04/10 01:23:10;;;;;;;;;;;;;;;0.40;100.00;95846.84;1031396;28;19914;-73
2022/04/10 01:23:40;;;;;;;;;;;;;;;0.40;100.00;95845.09;1026580;28;19910;-73
2022/04/10 01:24:13;;;;;;;;;;;;;;;0.39;100.00;95847.84;1027536;28;20615;-72
2022/04/10 01:24:43;;;;;;;;;;;;;;;0.39;100.00;95846.06;1026929;28;20010;-73
2022/04/10 01:25:14;;;;;;;;;;;;;;;0.40;100.00;95845.09;1030955;28;19909;-76
2022/04/10 01:25:44;;;;;;;;;;;;;;;0.39;100.00;95845.28;1026296;28;20287;-73
2022/04/10 01:26:14;;;;;;;;;;;;;;;0.37;100.00;95845.47;1026386;28;20487;-72
2022/04/10 01:26:45;;;;;;;;;;;;;;;0.36;100.00;95843.88;1021978;29;19922;-72
2022/04/10 01:27:15;;;;;;;;;;;;;;;0.33;100.00;95839.09;1018125;29;20056;-74
2022/04/10 01:27:45;;;;;;;;;;;;;;;0.34;100.00;95840.72;1026404;28;19914;-73
2022/04/10 01:28:15;;;;;;;;;;;;;;;0.37;100.00;95842.06;1022351;28;19942;-73
2022/04/10 01:29:05;;;;;;;;;;;;;;;0.38;100.00;95841.09;1022507;28;19915;-74
2022/04/10 01:29:35;;;;;;;;;;;;;;;0.36;100.00;95843.06;1026648;28;19997;-72
2022/04/10 01:30:06;;;;;;;;;;;;;;;0.35;100.00;95844.06;1028843;28;19921;-74
2022/04/10 01:30:36;;;;;;;;;;;;;;;0.38;100.00;95843.69;1030617;28;19922;-74
2022/04/10 01:31:06;;;;;;;;;;;;;;;0.37;100.00;95845.47;1022343;28;20415;-73
2022/04/10 01:31:37;;;;;;;;;;;;;;;0.36;100.00;95846.44;1018609;28;19915;-73
2022/04/10 01:32:08;;;;;;;;;;;;;;;0.36;100.00;95849.03;1014569;29;19912;-73
2022/04/10 01:32:38;;;;;;;;;;;;;;;0.36;100.00;95846.44;1018518;28;19915;-73
2022/04/10 01:33:12;;;;;;;;;;;;;;;0.38;100.00;95841.09;1026662;28;19922;-73
2022/04/10 01:33:42;;;;;;;;;;;;;;;0.38;100.00;95846.28;1030852;28;19917;-74
2022/04/10 01:34:16;;;;;;;;;;;;;;;0.39;100.00;95846.06;1035732;28;19968;-75
2022/04/10 01:34:46;;;;;;;;;;;;;;;0.43;100.00;95849.84;1034581;28;19913;-73
2022/04/10 01:35:16;;;;;;;;;;;;;;;0.43;100.00;95843.88;1031005;28;19917;-72
2022/04/10 01:35:47;;;;;;;;;;;;;;;0.44;100.00;95837.75;1030537;28;19921;-74
2022/04/10 01:36:17;;;;;;;;;;;;;;;0.46;100.00;95838.34;1030312;28;20040;-74
2022/04/10 01:36:47;;;;;;;;;;;;;;;0.47;100.00;95845.09;1029938;28;19914;-71
2022/04/10 01:37:18;;;;;;;;;;;;;;;0.47;100.00;95839.94;1026657;28;20012;-74
2022/04/10 01:37:48;;;;;;;;;;;;;;;0.47;100.00;95845.09;1027517;28;19965;-75
2022/04/10 01:38:18;;;;;;;;;;;;;;;0.47;100.00;95839.94;1030434;28;19921;-74
2022/04/10 01:38:49;;;;;;;;;;;;;;;0.49;100.00;95835.34;1026364;28;20331;-73
2022/04/10 01:39:22;;;;;;;;;;;;;;;0.51;100.00;95837.75;1030463;28;19921;-73
2022/04/10 01:39:53;;;;;;;;;;;;;;;0.53;100.00;95844.28;1034240;28;19929;-73
2022/04/10 01:40:23;;;;;;;;;;;;;;;0.53;100.00;95844.28;1023611;28;19978;-73
2022/04/10 01:40:56;;;;;;;;;;;;;;;0.54;100.00;95848.50;1023957;28;19919;-73
2022/04/10 01:41:27;;;;;;;;;;;;;;;0.53;100.00;95843.50;1031176;28;19918;-75
2022/04/10 01:41:57;;;;;;;;;;;;;;;0.54;100.00;95843.31;1031763;28;19941;-72
2022/04/10 01:42:28;;;;;;;;;;;;;;;0.57;100.00;95842.09;1030374;28;20330;-72
2022/04/10 01:42:58;;;;;;;;;;;;;;;0.58;100.00;95835.97;1030631;28;19952;-74
2022/04/10 01:43:29;;;;;;;;;;;;;;;0.60;100.00;95850.25;1035119;28;19913;-73
2022/04/10 01:43:59;;;;;;;;;;;;;;;0.60;100.00;95844.31;1031310;28;19976;-73
2022/04/10 01:44:29;;;;;;;;;;;;;;;0.59;100.00;95846.09;1037124;28;19956;-73
2022/04/10 01:44:59;;;;;;;;;;;;;;;0.60;100.00;95842.50;1030816;28;19922;-74
2022/04/10 01:45:30;;;;;;;;;;;;;;;0.62;100.00;95848.28;1031257;28;19913;-73
2022/04/10 01:46:02;;;;;;;;;;;;;;;0.62;100.00;95848.28;1031181;28;20000;-74
2022/04/10 01:46:33;;;;;;;;;;;;;;;0.63;100.00;95847.28;1027268;28;19914;-73
2022/04/10 01:47:03;;;;;;;;;;;;;;;0.61;100.00;95843.34;1027024;28;20272;-74
2022/04/10 01:47:37;;;;;;;;;;;;;;;0.61;100.00;95851.88;1035341;28;19921;-72
2022/04/10 01:48:07;;;;;;;;;;;;;;;0.62;100.00;95845.69;1034895;28;19917;-73
2022/04/10 01:48:37;;;;;;;;;;;;;;;0.63;100.00;95859.41;1035336;28;19920;-73
2022/04/10 01:49:08;;;;;;;;;;;;;;;0.63;100.00;95849.06;1035175;28;20449;-72
2022/04/10 01:49:38;;;;;;;;;;;;;;;0.62;100.00;95848.28;1035351;28;19963;-73
2022/04/10 01:50:09;;;;;;;;;;;;;;;0.64;100.00;95856.63;1039192;28;19924;-72
2022/04/10 01:50:39;;;;;;;;;;;;;;;0.63;100.00;95849.88;1031280;28;19922;-72
2022/04/10 01:51:10;;;;;;;;;;;;;;;0.63;100.00;95849.06;1035071;28;19967;-73
2022/04/10 01:51:40;;;;;;;;;;;;;;;0.62;100.00;95853.44;1035221;28;19916;-75
2022/04/10 01:52:10;;;;;;;;;;;;;;;0.62;100.00;95850.88;1034901;28;19925;-75
2022/04/10 01:52:41;;;;;;;;;;;;;;;0.65;100.00;95853.06;1035145;28;19925;-73
2022/04/10 01:53:11;;;;;;;;;;;;;;;0.65;100.00;95852.25;1030954;28;19921;-73
2022/04/10 01:53:41;;;;;;;;;;;;;;;0.63;100.00;95847.28;1027198;28;19914;-73
2022/04/10 01:54:12;;;;;;;;;;;;;;;0.64;100.00;95851.47;1023341;29;20474;-73
2022/04/10 01:54:42;;;;;;;;;;;;;;;0.65;100.00;95854.84;1023354;28;20404;-72
2022/04/10 01:55:12;;;;;;;;;;;;;;;0.64;100.00;95851.47;1023170;28;19926;-73
2022/04/10 01:55:42;;;;;;;;;;;;;;;0.63;100.00;95856.81;1027137;28;19962;-74
2022/04/10 01:56:13;;;;;;;;;;;;;;;0.60;100.00;95850.25;1028278;28;19957;-73
2022/04/10 01:56:43;;;;;;;;;;;;;;;0.60;100.00;95852.84;1031398;28;19917;-73
2022/04/10 01:57:13;;;;;;;;;;;;;;;0.58;100.00;95859.22;1035756;28;19922;-73
2022/04/10 01:57:44;;;;;;;;;;;;;;;0.57;100.00;95857.59;1031643;28;19956;-73
2022/04/10 01:58:17;;;;;;;;;;;;;;;0.60;100.00;95854.63;1035734;28;19952;-74
2022/04/10 01:58:47;;;;;;;;;;;;;;;0.59;100.00;95848.69;1031633;28;20327;-73
2022/04/10 01:59:17;;;;;;;;;;;;;;;0.57;100.00;95855.03;1035929;28;19910;-73
2022/04/10 01:59:48;;;;;;;;;;;;;;;0.59;100.00;95853.84;1035720;28;19918;-72
2022/04/10 02:00:18;;;;;;;;;;;;;;;0.59;100.00;95851.25;1032026;28;19913;-73
2022/04/10 02:00:48;;;;;;;;;;;;;;;0.64;100.00;95853.28;1027920;28;20351;-75
2022/04/10 02:01:19;;;;;;;;;;;;;;;0.67;100.00;95856.25;1032321;28;20383;-73
2022/04/10 02:01:50;;;;;;;;;;;;;;;0.70;100.00;95850.69;1036144;28;19959;-73
2022/04/10 02:02:20;;;;;;;;;;;;;;;0.74;100.00;95852.84;1031959;28;19945;-72
2022/04/10 02:02:50;;;;;;;;;;;;;;;0.76;100.00;95853.47;1032042;28;19914;-72
2022/04/10 02:03:21;;;;;;;;;;;;;;;0.72;100.00;95849.69;1023651;28;19949;-73
2022/04/10 02:03:51;;;;;;;;;;;;;;;0.75;100.00;95849.28;1023976;29;19922;-73
2022/04/10 02:04:21;;;;;;;;;;;;;;;0.73;100.00;95851.28;1031945;28;20323;-72
2022/04/10 02:04:52;;;;;;;;;;;;;;;0.72;100.00;95852.28;1032017;28;20059;-73
2022/04/10 02:05:22;;;;;;;;;;;;;;;0.70;100.00;95855.03;1037639;28;20519;-74
2022/04/10 02:05:52;;;;;;;;;;;;;;;0.70;100.00;95855.84;1035658;28;19916;-74
2022/04/10 02:06:23;;;;;;;;;;;;;;;0.68;100.00;95855.25;1040099;28;20393;-73
2022/04/10 02:06:53;;;;;;;;;;;;;;;0.73;100.00;95857.22;1039300;28;19982;-74
2022/04/10 02:07:26;;;;;;;;;;;;;;;0.71;100.00;95854.06;1027725;28;19965;-73
2022/04/10 02:07:56;;;;;;;;;;;;;;;0.68;100.00;95860.41;1027970;28;19918;-73
2022/04/10 02:08:27;;;;;;;;;;;;;;;0.66;100.00;95854.63;1023895;29;19934;-74
2022/04/10 02:08:57;;;;;;;;;;;;;;;0.68;100.00;95857.81;1024391;28;19989;-74
2022/04/10 02:09:28;;;;;;;;;;;;;;;0.71;100.00;95859.22;1027867;28;19914;-72
2022/04/10 02:09:58;;;;;;;;;;;;;;;0.69;100.00;95853.44;1028026;28;19920;-74
2022/04/10 02:10:28;;;;;;;;;;;;;;;0.71;100.00;95861.81;1035874;28;20467;-74
2022/04/10 02:10:59;;;;;;;;;;;;;;;0.69;100.00;95862.00;1032033;28;19913;-72
2022/04/10 02:11:29;;;;;;;;;;;;;;;0.65;100.00;95863.38;1027927;28;19953;-73
2022/04/10 02:11:59;;;;;;;;;;;;;;;0.63;100.00;95857.63;1028044;28;19926;-73
2022/04/10 02:12:31;;;;;;;;;;;;;;;0.61;100.00;95858.81;1031994;28;19917;-72
2022/04/10 02:13:04;;;;;;;;;;;;;;;0.63;100.00;95859.41;1028797;28;19965;-72
2022/04/10 02:13:34;;;;;;;;;;;;;;;0.64;100.00;95863.59;1036621;28;19922;-73
2022/04/10 02:14:05;;;;;;;;;;;;;;;0.65;100.00;95863.38;1036173;28;19926;-73
2022/04/10 02:14:38;;;;;;;;;;;;;;;0.63;100.00;95865.34;1032331;28;19918;-73
2022/04/10 02:15:11;;;;;;;;;;;;;;;0.66;100.00;95862.38;1035877;28;19917;-73
2022/04/10 02:15:42;;;;;;;;;;;;;;;0.67;100.00;95860.59;1030592;28;19968;-72
2022/04/10 02:16:13;;;;;;;;;;;;;;;0.65;100.00;95860.00;1027795;28;20037;-72
2022/04/10 02:16:43;;;;;;;;;;;;;;;0.60;100.00;95865.75;1026488;28;20419;-72
2022/04/10 02:17:13;;;;;;;;;;;;;;;0.67;100.00;95868.34;1023675;28;19926;-72
2022/04/10 02:17:43;;;;;;;;;;;;;;;0.65;100.00;95857.44;1027786;28;19914;-74
2022/04/10 02:18:14;;;;;;;;;;;;;;;0.68;100.00;95862.19;1031911;28;20415;-73
2022/04/10 02:18:44;;;;;;;;;;;;;;;0.67;100.00;95860.59;1031908;28;19926;-74
2022/04/10 02:19:14;;;;;;;;;;;;;;;0.67;100.00;95865.75;1032030;28;19992;-74
2022/04/10 02:19:51;;;;;;;;;;;;;;;0.65;100.00;95865.19;1031934;28;19925;-74
2022/04/10 02:20:21;;;;;;;;;;;;;;;0.68;100.00;95863.00;1030740;28;19928;-73
2022/04/10 02:20:52;;;;;;;;;;;;;;;0.69;100.00;95869.75;1032663;28;19917;-73
2022/04/10 02:21:22;;;;;;;;;;;;;;;0.69;100.00;95874.91;1035939;28;20310;-73
2022/04/10 02:21:54;;;;;;;;;;;;;;;0.72;100.00;95865.97;1031983;28;19918;-73
2022/04/10 02:22:25;;;;;;;;;;;;;;;0.71;100.00;95866.97;1027600;28;19926;-73
2022/04/10 02:22:55;;;;;;;;;;;;;;;0.72;100.00;95865.19;1027865;28;19918;-73
2022/04/10 02:23:26;;;;;;;;;;;;;;;0.71;100.00;95872.13;1024285;28;19907;-73
2022/04/10 02:23:56;;;;;;;;;;;;;;;0.73;100.00;95867.56;1028696;28;19925;-73
2022/04/10 02:24:28;;;;;;;;;;;;;;;0.76;100.00;95868.97;1035882;28;19922;-73
2022/04/10 02:24:58;;;;;;;;;;;;;;;0.75;100.00;95868.16;1036238;28;19920;-72
2022/04/10 02:25:28;;;;;;;;;;;;;;;0.76;100.00;95874.13;1035898;28;19924;-73
2022/04/10 02:25:59;;;;;;;;;;;;;;;0.76;100.00;95866.38;1035848;28;20177;-73
2022/04/10 02:26:32;;;;;;;;;;;;;;;0.77;100.00;95865.38;1032461;28;19930;-75
2022/04/10 02:27:02;;;;;;;;;;;;;;;0.78;100.00;95866.97;1031402;28;19933;-73
2022/04/10 02:27:33;;;;;;;;;;;;;;;0.77;100.00;95867.94;1031722;28;19918;-73
2022/04/10 02:28:04;;;;;;;;;;;;;;;0.79;100.00;95871.16;1028296;28;20331;-73
2022/04/10 02:28:34;;;;;;;;;;;;;;;0.80;100.00;95867.56;1031971;28;20657;-74
2022/04/10 02:29:05;;;;;;;;;;;;;;;0.81;100.00;95871.75;1035664;28;20370;-73
2022/04/10 02:29:35;;;;;;;;;;;;;;;0.83;100.00;95870.53;1036123;28;19925;-73
2022/04/10 02:30:06;;;;;;;;;;;;;;;0.82;100.00;95868.97;1036041;28;20359;-73
2022/04/10 02:30:38;;;;;;;;;;;;;;;0.82;100.00;95873.34;1039967;28;19917;-75
2022/04/10 02:31:08;;;;;;;;;;;;;;;0.81;100.00;95875.13;1039879;28;20434;-72
2022/04/10 02:31:38;;;;;;;;;;;;;;;0.83;100.00;95867.97;1040022;28;19913;-73
2022/04/10 02:32:11;;;;;;;;;;;;;;;0.84;100.00;95876.50;1040170;28;20003;-73
2022/04/10 02:32:42;;;;;;;;;;;;;;;0.83;100.00;95874.91;1035356;28;20462;-74
2022/04/10 02:33:12;;;;;;;;;;;;;;;0.83;100.00;95875.72;1031885;28;20008;-74
2022/04/10 02:33:42;;;;;;;;;;;;;;;0.82;100.00;95879.28;1031878;28;19914;-73
2022/04/10 02:34:13;;;;;;;;;;;;;;;0.81;100.00;95880.28;1031833;28;19914;-74
2022/04/10 02:34:43;;;;;;;;;;;;;;;0.80;100.00;95877.88;1030412;28;19910;-74
2022/04/10 02:35:13;;;;;;;;;;;;;;;0.79;100.00;95871.94;1026480;28;19925;-73
2022/04/10 02:35:43;;;;;;;;;;;;;;;0.79;100.00;95873.72;1026300;28;20281;-73
2022/04/10 02:36:16;;;;;;;;;;;;;;;0.79;100.00;95873.72;1026957;28;20663;-72
2022/04/10 02:36:46;;;;;;;;;;;;;;;0.81;100.00;95871.75;1030285;28;20544;-74
2022/04/10 02:37:17;;;;;;;;;;;;;;;0.81;100.00;95877.72;1027878;28;19917;-73
2022/04/10 02:37:47;;;;;;;;;;;;;;;0.80;100.00;95881.25;1026295;28;19929;-72
2022/04/10 02:38:17;;;;;;;;;;;;;;;0.81;100.00;95871.75;1025505;28;20415;-74
2022/04/10 02:38:51;;;;;;;;;;;;;;;0.79;100.00;95874.53;1028995;28;19945;-70
2022/04/10 02:39:21;;;;;;;;;;;;;;;0.78;100.00;95872.94;1022927;28;21327;-71
2022/04/10 02:39:51;;;;;;;;;;;;;;;0.78;100.00;95872.94;1031892;28;19910;-74
2022/04/10 02:40:22;;;;;;;;;;;;;;;0.50;100.00;95831.78;1031223;28;19906;-72
2022/04/10 02:40:52;;;;;;;;;;;;;;;0.79;100.00;95871.94;1031895;28;19914;-71
2022/04/10 02:41:22;;;;;;;;;;;;;;;0.77;100.00;95871.34;1029966;28;19925;-73